TX73 weather

CLOSED Big Brown Creek Airstrip
Fairfield, Texas, United States

Public forecast

Using degrees Fahrenheit for public forecast. Weather courtesy of forecast.io.

METAR (pilot weather report)

Closest report is Palestine Municipal Airport, 17.9 nm (33.2 km) E. Retrieved 2019/07/18 18:15 UTC (20 minutes ago):

KPSN 181815Z AUTO 18008KT 10SM CLR 32/23 A3003 RMK AO2 T03250231

TAF (pilot weather forecast)

Closest forecast is Tyler Pounds Regional Airport, 45.6 nm (84.4 km) NE. Retrieved 2019/07/18 18:30 UTC (5 minutes ago):

TAF KTYR 181728Z 1818/1918 20012KT P6SM SCT040 FM190000 18008KT P6SM SKC FM190900 19008KT P6SM BKN010 FM191500 19010KT P6SM SCT035